createdAt,value
2023-03-18T00:00:19.219Z,100.00
2023-03-18T00:02:24.178Z,100.00
2023-03-18T00:04:31.691Z,100.00
2023-03-18T00:06:39.038Z,100.00
2023-03-18T00:08:45.444Z,100.00
2023-03-18T00:10:54.034Z,100.00
2023-03-18T00:12:59.536Z,100.00
2023-03-18T00:15:04.448Z,100.00
2023-03-18T00:17:09.585Z,100.00
2023-03-18T00:19:14.812Z,100.00
2023-03-18T00:21:23.740Z,100.00
2023-03-18T00:23:29.752Z,100.00
2023-03-18T00:25:34.651Z,100.00
2023-03-18T00:27:41.150Z,100.00
2023-03-18T00:29:46.517Z,100.00
2023-03-18T00:31:51.686Z,100.00
2023-03-18T00:33:58.997Z,100.00
2023-03-18T00:36:04.198Z,100.00
2023-03-18T00:38:20.732Z,100.00
2023-03-18T00:40:30.226Z,100.00
2023-03-18T00:42:39.022Z,100.00
2023-03-18T00:44:45.128Z,100.00
2023-03-18T00:46:51.158Z,100.00
2023-03-18T00:48:58.552Z,100.00
2023-03-18T00:51:03.920Z,100.00
2023-03-18T00:53:11.520Z,100.00
2023-03-18T00:55:16.689Z,100.00
2023-03-18T00:57:21.584Z,100.00
2023-03-18T00:59:27.414Z,100.00
2023-03-18T01:01:33.226Z,100.00
2023-03-18T01:03:39.412Z,100.00
2023-03-18T01:05:45.348Z,100.00
2023-03-18T01:07:50.617Z,100.00
2023-03-18T01:09:58.108Z,100.00
2023-03-18T01:12:03.088Z,100.00
2023-03-18T01:14:07.997Z,100.00
2023-03-18T01:16:13.625Z,100.00
2023-03-18T01:18:19.761Z,100.00
2023-03-18T01:20:25.528Z,100.00
2023-03-18T01:22:33.130Z,100.00
2023-03-18T01:24:39.515Z,100.00
2023-03-18T01:26:47.568Z,100.00
2023-03-18T01:28:52.967Z,100.00
2023-03-18T01:30:58.705Z,100.00
2023-03-18T01:33:04.847Z,100.00
2023-03-18T01:35:12.235Z,100.00
2023-03-18T01:37:26.749Z,100.00
2023-03-18T01:39:43.332Z,100.00
2023-03-18T01:41:58.501Z,100.00
2023-03-18T01:44:10.578Z,100.00
2023-03-18T01:46:38.054Z,100.00
2023-03-18T01:48:44.210Z,100.00
2023-03-18T01:50:55.842Z,100.00
2023-03-18T01:53:06.348Z,100.00
2023-03-18T01:55:17.579Z,100.00
2023-03-18T01:57:26.187Z,100.00
2023-03-18T01:59:35.840Z,100.00
2023-03-18T02:01:46.722Z,100.00
2023-03-18T02:03:54.422Z,100.00
2023-03-18T02:06:00.056Z,100.00
2023-03-18T02:08:06.229Z,100.00
2023-03-18T02:10:16.524Z,100.00
2023-03-18T02:12:29.339Z,100.00
2023-03-18T02:14:38.568Z,100.00
2023-03-18T02:16:50.382Z,100.00
2023-03-18T02:19:01.349Z,100.00
2023-03-18T02:21:25.792Z,100.00
2023-03-18T02:23:46.458Z,100.00
2023-03-18T02:25:57.996Z,100.00
2023-03-18T02:28:10.453Z,100.00
2023-03-18T02:30:21.844Z,100.00
2023-03-18T02:32:30.704Z,100.00
2023-03-18T02:34:38.173Z,100.00
2023-03-18T02:36:43.463Z,100.00
2023-03-18T02:38:50.084Z,100.00
2023-03-18T02:41:01.560Z,100.00
2023-03-18T02:43:25.849Z,100.00
2023-03-18T02:45:45.465Z,100.00
2023-03-18T02:47:52.855Z,100.00
2023-03-18T02:50:01.360Z,100.00
2023-03-18T02:52:07.513Z,100.00
2023-03-18T02:54:16.596Z,100.00
2023-03-18T02:56:21.986Z,100.00
2023-03-18T02:58:29.644Z,100.00
2023-03-18T03:00:38.396Z,100.00
2023-03-18T03:02:43.638Z,100.00
2023-03-18T03:04:49.290Z,100.00
2023-03-18T03:06:59.620Z,100.00
2023-03-18T03:09:18.991Z,100.00
2023-03-18T03:11:25.049Z,100.00
2023-03-18T03:13:36.152Z,100.00
2023-03-18T03:15:43.064Z,100.00
2023-03-18T03:17:49.527Z,100.00
2023-03-18T03:19:56.456Z,100.00
2023-03-18T03:22:02.127Z,100.00
2023-03-18T03:24:09.936Z,100.00
2023-03-18T03:26:18.937Z,100.00
2023-03-18T03:28:24.013Z,100.00
2023-03-18T03:30:33.239Z,100.00
2023-03-18T03:32:38.837Z,100.00
2023-03-18T03:34:44.183Z,100.00
2023-03-18T03:36:50.288Z,100.00
2023-03-18T03:38:55.515Z,100.00
2023-03-18T03:41:01.025Z,100.00
2023-03-18T03:43:06.599Z,100.00
2023-03-18T03:45:13.982Z,100.00
2023-03-18T03:47:22.951Z,100.00
2023-03-18T03:49:28.483Z,100.00
2023-03-18T03:51:34.254Z,100.00
2023-03-18T03:53:39.530Z,100.00
2023-03-18T03:55:45.084Z,100.00
2023-03-18T03:57:51.260Z,100.00
2023-03-18T03:59:56.898Z,100.00
2023-03-18T04:02:27.774Z,100.00
2023-03-18T04:04:33.852Z,100.00
2023-03-18T04:06:40.308Z,100.00
2023-03-18T04:08:46.274Z,100.00
2023-03-18T04:10:51.233Z,100.00
2023-03-18T04:12:56.470Z,100.00
2023-03-18T04:15:01.504Z,100.00
2023-03-18T04:17:08.174Z,100.00
2023-03-18T04:19:16.853Z,100.00
2023-03-18T04:21:22.529Z,100.00
2023-03-18T04:23:33.196Z,100.00
2023-03-18T04:25:38.742Z,100.00
2023-03-18T04:27:44.894Z,100.00
2023-03-18T04:29:51.896Z,100.00
2023-03-18T04:31:59.300Z,100.00
2023-03-18T04:34:04.615Z,100.00
2023-03-18T04:36:13.061Z,100.00
2023-03-18T04:38:18.672Z,100.00
2023-03-18T04:40:25.763Z,100.00
2023-03-18T04:42:31.444Z,100.00
2023-03-18T04:44:37.237Z,100.00
2023-03-18T04:46:44.033Z,100.00
2023-03-18T04:48:49.254Z,100.00
2023-03-18T04:50:55.149Z,100.00
2023-03-18T04:53:07.550Z,100.00
2023-03-18T04:55:14.433Z,100.00
2023-03-18T04:57:21.757Z,100.00
2023-03-18T04:59:31.000Z,100.00
2023-03-18T05:01:39.119Z,100.00
2023-03-18T05:03:45.395Z,100.00
2023-03-18T05:05:53.095Z,100.00
2023-03-18T05:08:06.093Z,100.00
2023-03-18T05:10:13.558Z,100.00
2023-03-18T05:12:20.005Z,100.00
2023-03-18T05:14:25.356Z,100.00
2023-03-18T05:16:33.367Z,100.00
2023-03-18T05:18:38.722Z,100.00
2023-03-18T05:20:45.970Z,100.00
2023-03-18T05:22:53.478Z,100.00
2023-03-18T05:25:13.929Z,100.00
2023-03-18T05:27:21.352Z,100.00
2023-03-18T05:29:36.096Z,100.00
2023-03-18T05:32:07.786Z,100.00
2023-03-18T05:34:13.627Z,100.00
2023-03-18T05:36:24.442Z,100.00
2023-03-18T05:38:37.476Z,100.00
2023-03-18T05:40:45.746Z,100.00
2023-03-18T05:42:58.752Z,100.00
2023-03-18T05:45:14.404Z,100.00
2023-03-18T05:47:27.905Z,100.00
2023-03-18T05:49:43.405Z,100.00
2023-03-18T05:51:57.307Z,100.00
2023-03-18T05:54:16.462Z,100.00
2023-03-18T05:56:25.745Z,100.00
2023-03-18T05:58:35.571Z,100.00
2023-03-18T06:00:59.363Z,100.00
2023-03-18T06:03:05.588Z,100.00
2023-03-18T06:05:13.762Z,100.00
2023-03-18T06:07:18.981Z,100.00
2023-03-18T06:09:26.182Z,100.00
2023-03-18T06:11:34.059Z,100.00
2023-03-18T06:13:39.868Z,100.00
2023-03-18T06:15:48.738Z,100.00
2023-03-18T06:17:54.197Z,100.00
2023-03-18T06:19:59.916Z,100.00
2023-03-18T06:22:04.869Z,100.00
2023-03-18T06:24:10.808Z,100.00
2023-03-18T06:26:17.132Z,100.00
2023-03-18T06:28:28.172Z,100.00
2023-03-18T06:30:37.753Z,100.00
2023-03-18T06:32:42.967Z,100.00
2023-03-18T06:34:48.596Z,100.00
2023-03-18T06:36:53.788Z,100.00
2023-03-18T06:38:59.314Z,100.00
2023-03-18T06:41:05.574Z,100.00
2023-03-18T06:43:21.421Z,100.00
2023-03-18T06:45:30.617Z,100.00
2023-03-18T06:47:41.634Z,100.00
2023-03-18T06:49:48.578Z,100.00
2023-03-18T06:51:57.908Z,100.00
2023-03-18T06:54:03.236Z,100.00
2023-03-18T06:56:13.587Z,100.00
2023-03-18T06:58:30.589Z,100.00
2023-03-18T07:00:49.074Z,100.00
2023-03-18T07:03:01.812Z,100.00
2023-03-18T07:05:08.729Z,100.00
2023-03-18T07:07:14.700Z,100.00
2023-03-18T07:09:20.111Z,100.00
2023-03-18T07:11:31.310Z,100.00
2023-03-18T07:13:40.624Z,100.00
2023-03-18T07:15:56.998Z,100.00
2023-03-18T07:18:05.144Z,100.00
2023-03-18T07:20:11.895Z,100.00
2023-03-18T07:22:17.923Z,100.00
2023-03-18T07:24:23.798Z,100.00
2023-03-18T07:26:29.618Z,100.00
2023-03-18T07:28:34.597Z,100.00
2023-03-18T07:30:40.783Z,100.00
2023-03-18T07:32:49.778Z,100.00
2023-03-18T07:34:55.016Z,100.00
2023-03-18T07:37:00.612Z,100.00
2023-03-18T07:39:05.837Z,100.00
2023-03-18T07:41:11.313Z,100.00
2023-03-18T07:43:17.375Z,100.00
2023-03-18T07:45:22.911Z,100.00
2023-03-18T07:47:28.402Z,100.00
2023-03-18T07:49:35.868Z,100.00
2023-03-18T07:51:41.565Z,100.00
2023-03-18T07:53:47.633Z,100.00
2023-03-18T07:55:52.802Z,100.00
2023-03-18T07:57:57.962Z,100.00
2023-03-18T08:00:04.652Z,100.00
2023-03-18T08:02:18.795Z,100.00
2023-03-18T08:04:23.875Z,100.00
2023-03-18T08:06:32.398Z,100.00
2023-03-18T08:08:37.265Z,100.00
2023-03-18T08:10:42.407Z,100.00
2023-03-18T08:12:52.997Z,100.00
2023-03-18T08:14:59.940Z,100.00
2023-03-18T08:17:05.692Z,100.00
2023-03-18T08:19:10.689Z,100.00
2023-03-18T08:21:16.014Z,100.00
2023-03-18T08:23:23.819Z,100.00
2023-03-18T08:25:29.395Z,100.00
2023-03-18T08:27:34.283Z,100.00
2023-03-18T08:29:39.405Z,100.00
2023-03-18T08:31:44.735Z,100.00
2023-03-18T08:33:49.683Z,100.00
2023-03-18T08:35:54.771Z,100.00
2023-03-18T08:38:00.067Z,100.00
2023-03-18T08:40:09.792Z,100.00
2023-03-18T08:42:16.323Z,100.00
2023-03-18T08:44:21.256Z,100.00
2023-03-18T08:46:26.314Z,100.00
2023-03-18T08:48:32.001Z,100.00
2023-03-18T08:50:37.817Z,100.00
2023-03-18T08:52:43.056Z,100.00
2023-03-18T08:54:47.932Z,100.00
2023-03-18T08:56:55.372Z,100.00
2023-03-18T08:59:00.452Z,100.00
2023-03-18T09:01:06.369Z,100.00
2023-03-18T09:03:11.984Z,100.00
2023-03-18T09:05:17.861Z,100.00
2023-03-18T09:07:22.728Z,100.00
2023-03-18T09:09:40.829Z,100.00
2023-03-18T09:11:50.087Z,100.00
2023-03-18T09:13:57.542Z,100.00
2023-03-18T09:16:02.980Z,100.00
2023-03-18T09:18:11.964Z,100.00
2023-03-18T09:20:19.787Z,100.00
2023-03-18T09:22:25.204Z,100.00
2023-03-18T09:24:30.154Z,100.00
2023-03-18T09:26:35.719Z,100.00
2023-03-18T09:28:40.829Z,100.00
2023-03-18T09:30:48.509Z,100.00
2023-03-18T09:32:54.168Z,100.00
2023-03-18T09:34:59.533Z,100.00
2023-03-18T09:37:05.209Z,100.00
2023-03-18T09:39:10.172Z,100.00
2023-03-18T09:41:36.495Z,100.00
2023-03-18T09:43:57.982Z,100.00
2023-03-18T09:46:15.774Z,100.00
2023-03-18T09:48:55.658Z,100.00
2023-03-18T09:51:09.565Z,100.00
2023-03-18T09:53:25.220Z,100.00
2023-03-18T09:55:40.214Z,100.00
2023-03-18T09:57:49.409Z,100.00
2023-03-18T10:00:01.005Z,100.00
2023-03-18T10:02:20.251Z,100.00
2023-03-18T10:04:31.550Z,100.00
2023-03-18T10:06:42.986Z,100.00
2023-03-18T10:08:59.910Z,100.00
2023-03-18T10:11:10.897Z,100.00
2023-03-18T10:13:22.629Z,100.00
2023-03-18T10:15:39.871Z,100.00
2023-03-18T10:17:53.849Z,100.00
2023-03-18T10:20:04.467Z,100.00
2023-03-18T10:22:41.158Z,100.00
2023-03-18T10:24:53.454Z,100.00
2023-03-18T10:27:12.465Z,100.00
2023-03-18T10:29:33.362Z,100.00
2023-03-18T10:31:50.340Z,100.00
2023-03-18T10:34:02.835Z,100.00
2023-03-18T10:36:20.312Z,100.00
2023-03-18T10:38:31.099Z,100.00
2023-03-18T10:40:41.309Z,100.00
2023-03-18T10:42:47.977Z,100.00
2023-03-18T10:44:54.931Z,100.00
2023-03-18T10:47:05.432Z,100.00
2023-03-18T10:49:19.375Z,100.00
2023-03-18T10:51:31.410Z,100.00
2023-03-18T10:53:44.390Z,100.00
2023-03-18T10:56:01.329Z,100.00
2023-03-18T10:58:19.565Z,100.00
2023-03-18T11:00:33.588Z,100.00
2023-03-18T11:02:42.103Z,100.00
2023-03-18T11:04:55.611Z,100.00
2023-03-18T11:07:02.987Z,100.00
2023-03-18T11:09:12.908Z,100.00
2023-03-18T11:11:29.258Z,100.00
2023-03-18T11:13:35.812Z,100.00
2023-03-18T11:15:44.635Z,100.00
2023-03-18T11:17:52.931Z,100.00
2023-03-18T11:20:22.304Z,100.00
2023-03-18T11:22:29.208Z,100.00
2023-03-18T11:24:40.023Z,100.00
2023-03-18T11:26:56.015Z,100.00
2023-03-18T11:29:08.360Z,100.00
2023-03-18T11:31:20.542Z,100.00
2023-03-18T11:33:28.785Z,100.00
2023-03-18T11:35:42.656Z,100.00
2023-03-18T11:37:50.789Z,100.00
2023-03-18T11:39:59.066Z,100.00
2023-03-18T11:42:04.631Z,100.00
2023-03-18T11:44:19.048Z,100.00
2023-03-18T11:46:27.446Z,100.00
2023-03-18T11:48:38.081Z,100.00
2023-03-18T11:51:08.629Z,100.00
2023-03-18T11:53:22.774Z,100.00
2023-03-18T11:55:41.905Z,100.00
2023-03-18T11:58:11.425Z,100.00
2023-03-18T12:00:30.652Z,100.00
2023-03-18T12:03:30.126Z,100.00
2023-03-18T12:05:55.097Z,100.00
2023-03-18T12:08:10.725Z,100.00
2023-03-18T12:10:27.151Z,100.00
2023-03-18T12:12:53.561Z,100.00
2023-03-18T12:15:08.064Z,100.00
2023-03-18T12:17:28.815Z,100.00
2023-03-18T12:19:54.352Z,100.00
2023-03-18T12:22:21.977Z,100.00
2023-03-18T12:24:52.517Z,100.00
2023-03-18T12:27:06.846Z,100.00
2023-03-18T12:29:41.235Z,100.00
2023-03-18T12:32:03.161Z,100.00
2023-03-18T12:34:17.615Z,100.00
2023-03-18T12:36:34.371Z,100.00
2023-03-18T12:39:30.611Z,94.60
2023-03-18T12:41:50.027Z,97.40
2023-03-18T12:44:10.834Z,92.08
2023-03-18T12:46:28.812Z,91.14
2023-03-18T12:48:44.511Z,87.45
2023-03-18T12:50:57.600Z,86.50
2023-03-18T12:53:07.058Z,86.59
2023-03-18T12:55:21.824Z,86.10
2023-03-18T12:57:39.784Z,88.00
2023-03-18T12:59:53.280Z,88.76
2023-03-18T13:02:29.582Z,85.11
2023-03-18T13:04:39.217Z,80.20
2023-03-18T13:06:50.190Z,82.61
2023-03-18T13:09:07.164Z,73.77
2023-03-18T13:11:32.567Z,78.23
2023-03-18T13:13:43.959Z,76.40
2023-03-18T13:15:53.725Z,80.56
2023-03-18T13:18:06.108Z,84.32
2023-03-18T13:20:19.279Z,84.31
2023-03-18T13:23:02.713Z,82.09
2023-03-18T13:25:21.136Z,85.32
2023-03-18T13:27:54.116Z,77.91
2023-03-18T13:30:07.920Z,85.07
2023-03-18T13:32:41.636Z,76.25
2023-03-18T13:35:34.202Z,75.58
2023-03-18T13:38:24.326Z,66.04
2023-03-18T13:40:52.612Z,68.10
2023-03-18T13:43:03.355Z,66.21
2023-03-18T13:45:20.291Z,63.20
2023-03-18T13:47:27.251Z,64.96
2023-03-18T13:49:38.080Z,62.45
2023-03-18T13:51:54.585Z,63.57
2023-03-18T13:54:05.083Z,62.82
2023-03-18T13:56:31.443Z,62.63
2023-03-18T13:58:48.287Z,60.15
2023-03-18T14:01:28.769Z,57.92
2023-03-18T14:03:37.016Z,59.09
2023-03-18T14:05:45.819Z,58.55
2023-03-18T14:07:51.955Z,60.25
2023-03-18T14:10:19.530Z,59.13
2023-03-18T14:12:42.189Z,62.19
2023-03-18T14:15:06.228Z,61.71
2023-03-18T14:17:22.513Z,62.56
2023-03-18T14:19:32.673Z,62.71
2023-03-18T14:21:49.170Z,62.76
2023-03-18T14:24:08.180Z,65.54
2023-03-18T14:26:26.712Z,66.24
2023-03-18T14:28:39.329Z,65.92
2023-03-18T14:31:00.726Z,66.16
2023-03-18T14:33:09.199Z,68.44
2023-03-18T14:35:30.468Z,66.38
2023-03-18T14:37:38.368Z,67.01
2023-03-18T14:39:46.759Z,63.41
2023-03-18T14:41:58.563Z,67.56
2023-03-18T14:44:21.732Z,64.63
2023-03-18T14:46:37.224Z,65.31
2023-03-18T14:48:42.856Z,65.29
2023-03-18T14:50:51.705Z,65.15
2023-03-18T14:53:01.456Z,64.78
2023-03-18T14:55:18.323Z,61.86
2023-03-18T14:57:25.797Z,59.53
2023-03-18T14:59:30.922Z,60.19
2023-03-18T15:01:42.912Z,57.98
2023-03-18T15:03:51.469Z,59.38
2023-03-18T15:06:01.738Z,61.75
2023-03-18T15:08:12.793Z,63.38
2023-03-18T15:10:25.223Z,65.28
2023-03-18T15:12:32.060Z,62.47
2023-03-18T15:14:37.960Z,65.03
2023-03-18T15:16:52.981Z,63.25
2023-03-18T15:19:00.272Z,63.08
2023-03-18T15:21:10.992Z,59.13
2023-03-18T15:23:17.614Z,58.50
2023-03-18T15:25:25.393Z,57.15
2023-03-18T15:27:34.572Z,58.55
2023-03-18T15:29:55.863Z,54.83
2023-03-18T15:32:21.632Z,51.83
2023-03-18T15:34:34.248Z,50.94
2023-03-18T15:36:47.382Z,54.65
2023-03-18T15:38:53.576Z,55.08
2023-03-18T15:41:01.747Z,51.00
2023-03-18T15:43:19.104Z,50.62
2023-03-18T15:45:27.413Z,54.65
2023-03-18T15:47:36.986Z,51.29
2023-03-18T15:49:53.658Z,53.49
2023-03-18T15:52:04.874Z,55.87
2023-03-18T15:54:19.502Z,56.73
2023-03-18T15:56:32.365Z,61.13
2023-03-18T15:58:39.991Z,63.08
2023-03-18T16:00:45.038Z,63.29
2023-03-18T16:02:53.177Z,67.70
2023-03-18T16:05:09.790Z,66.14
2023-03-18T16:07:22.364Z,67.99
2023-03-18T16:09:29.706Z,67.24
2023-03-18T16:11:36.949Z,68.90
2023-03-18T16:13:43.782Z,66.33
2023-03-18T16:15:49.521Z,65.89
2023-03-18T16:17:58.892Z,65.22
2023-03-18T16:20:06.545Z,65.94
2023-03-18T16:22:12.555Z,64.77
2023-03-18T16:24:17.430Z,67.94
2023-03-18T16:26:22.656Z,69.17
2023-03-18T16:28:30.005Z,70.23
2023-03-18T16:30:40.078Z,70.62
2023-03-18T16:32:44.967Z,72.41
2023-03-18T16:34:52.469Z,75.30
2023-03-18T16:36:57.960Z,75.38
2023-03-18T16:39:03.666Z,77.22
2023-03-18T16:41:09.468Z,76.87
2023-03-18T16:43:22.258Z,78.68
2023-03-18T16:45:31.105Z,80.62
2023-03-18T16:47:37.095Z,83.36
2023-03-18T16:49:42.284Z,83.50
2023-03-18T16:51:50.524Z,89.20
2023-03-18T16:53:56.212Z,90.16
2023-03-18T16:56:04.580Z,92.69
2023-03-18T16:58:13.576Z,94.94
2023-03-18T17:00:24.890Z,98.17
2023-03-18T17:02:36.004Z,100.00
2023-03-18T17:04:40.915Z,100.00
2023-03-18T17:06:46.248Z,100.00
2023-03-18T17:08:53.989Z,100.00
2023-03-18T17:11:02.549Z,100.00
2023-03-18T17:13:13.485Z,100.00
2023-03-18T17:15:22.654Z,100.00
2023-03-18T17:17:33.977Z,100.00
2023-03-18T17:19:40.116Z,100.00
2023-03-18T17:21:48.720Z,100.00
2023-03-18T17:23:57.129Z,100.00
2023-03-18T17:26:04.750Z,100.00
2023-03-18T17:28:11.140Z,100.00
2023-03-18T17:30:21.143Z,100.00
2023-03-18T17:32:26.515Z,100.00
2023-03-18T17:34:32.185Z,100.00
2023-03-18T17:36:37.081Z,100.00
2023-03-18T17:38:42.476Z,100.00
2023-03-18T17:40:50.693Z,100.00
2023-03-18T17:42:56.187Z,100.00
2023-03-18T17:45:08.742Z,100.00
2023-03-18T17:47:14.568Z,100.00
2023-03-18T17:49:22.393Z,100.00
2023-03-18T17:51:27.972Z,100.00
2023-03-18T17:53:37.492Z,100.00
2023-03-18T17:55:42.404Z,100.00
2023-03-18T17:57:50.722Z,100.00
2023-03-18T17:59:57.343Z,100.00
2023-03-18T18:02:02.637Z,100.00
2023-03-18T18:04:08.049Z,100.00
2023-03-18T18:06:20.234Z,100.00
2023-03-18T18:08:28.589Z,100.00
2023-03-18T18:10:33.469Z,100.00
2023-03-18T18:12:38.545Z,100.00
2023-03-18T18:14:46.458Z,100.00
2023-03-18T18:16:53.628Z,100.00
2023-03-18T18:18:58.748Z,100.00
2023-03-18T18:21:06.102Z,100.00
2023-03-18T18:23:25.390Z,100.00
2023-03-18T18:25:32.249Z,100.00
2023-03-18T18:27:37.239Z,100.00
2023-03-18T18:29:46.146Z,100.00
2023-03-18T18:31:52.315Z,100.00
2023-03-18T18:33:57.637Z,100.00
2023-03-18T18:36:03.300Z,100.00
2023-03-18T18:38:09.614Z,100.00
2023-03-18T18:40:17.971Z,100.00
2023-03-18T18:42:22.826Z,100.00
2023-03-18T18:44:28.576Z,100.00
2023-03-18T18:46:36.474Z,100.00
2023-03-18T18:48:41.861Z,100.00
2023-03-18T18:50:47.722Z,100.00
2023-03-18T18:52:52.663Z,100.00
2023-03-18T18:54:58.084Z,100.00
2023-03-18T18:57:03.002Z,100.00
2023-03-18T18:59:27.022Z,100.00
2023-03-18T19:01:34.662Z,100.00
2023-03-18T19:03:41.534Z,100.00
2023-03-18T19:05:48.449Z,100.00
2023-03-18T19:07:53.650Z,100.00
2023-03-18T19:09:59.323Z,100.00
2023-03-18T19:12:04.720Z,100.00
2023-03-18T19:14:24.321Z,100.00
2023-03-18T19:16:36.020Z,100.00
2023-03-18T19:18:44.041Z,100.00
2023-03-18T19:20:51.016Z,100.00
2023-03-18T19:22:57.755Z,100.00
2023-03-18T19:25:03.005Z,100.00
2023-03-18T19:27:18.412Z,100.00
2023-03-18T19:29:23.597Z,100.00
2023-03-18T19:31:35.083Z,100.00
2023-03-18T19:33:43.584Z,100.00
2023-03-18T19:35:49.284Z,100.00
2023-03-18T19:37:54.655Z,100.00
2023-03-18T19:40:00.909Z,100.00
2023-03-18T19:42:06.235Z,100.00
2023-03-18T19:44:20.496Z,100.00
2023-03-18T19:46:32.685Z,100.00
2023-03-18T19:48:37.539Z,100.00
2023-03-18T19:50:45.195Z,100.00
2023-03-18T19:52:50.323Z,100.00
2023-03-18T19:54:56.800Z,100.00
2023-03-18T19:57:04.242Z,100.00
2023-03-18T19:59:22.120Z,100.00
2023-03-18T20:01:30.559Z,100.00
2023-03-18T20:03:35.619Z,100.00
2023-03-18T20:05:41.025Z,100.00
2023-03-18T20:07:50.376Z,100.00
2023-03-18T20:09:56.788Z,100.00
2023-03-18T20:12:05.898Z,100.00
2023-03-18T20:14:24.592Z,100.00
2023-03-18T20:16:29.974Z,100.00
2023-03-18T20:18:34.878Z,100.00
2023-03-18T20:20:39.996Z,100.00
2023-03-18T20:22:51.874Z,100.00
2023-03-18T20:24:57.237Z,100.00
2023-03-18T20:27:02.108Z,100.00
2023-03-18T20:29:18.096Z,100.00
2023-03-18T20:31:23.311Z,100.00
2023-03-18T20:33:28.226Z,100.00
2023-03-18T20:35:37.302Z,100.00
2023-03-18T20:37:42.340Z,100.00
2023-03-18T20:39:49.901Z,100.00
2023-03-18T20:41:55.351Z,100.00
2023-03-18T20:44:00.193Z,100.00
2023-03-18T20:46:05.472Z,100.00
2023-03-18T20:48:10.527Z,100.00
2023-03-18T20:50:17.901Z,100.00
2023-03-18T20:52:28.592Z,100.00
2023-03-18T20:54:34.704Z,100.00
2023-03-18T20:56:42.163Z,100.00
2023-03-18T20:58:47.001Z,100.00
2023-03-18T21:00:52.666Z,100.00
2023-03-18T21:03:00.524Z,100.00
2023-03-18T21:05:06.788Z,100.00
2023-03-18T21:07:16.597Z,100.00
2023-03-18T21:09:21.856Z,100.00
2023-03-18T21:11:32.989Z,100.00
2023-03-18T21:13:41.822Z,100.00
2023-03-18T21:15:46.760Z,100.00
2023-03-18T21:17:52.010Z,100.00
2023-03-18T21:20:11.123Z,100.00
2023-03-18T21:22:24.840Z,100.00
2023-03-18T21:24:31.659Z,100.00
2023-03-18T21:26:36.717Z,100.00
2023-03-18T21:28:44.317Z,100.00
2023-03-18T21:30:52.222Z,100.00
2023-03-18T21:32:57.621Z,100.00
2023-03-18T21:35:02.741Z,100.00
2023-03-18T21:37:16.988Z,100.00
2023-03-18T21:39:22.054Z,100.00
2023-03-18T21:41:32.037Z,100.00
2023-03-18T21:43:39.685Z,100.00
2023-03-18T21:45:48.565Z,100.00
2023-03-18T21:47:55.033Z,100.00
2023-03-18T21:49:59.902Z,100.00
2023-03-18T21:52:05.125Z,100.00
2023-03-18T21:54:19.263Z,100.00
2023-03-18T21:56:24.828Z,100.00
2023-03-18T21:58:30.947Z,100.00
2023-03-18T22:00:36.224Z,100.00
2023-03-18T22:02:43.677Z,100.00
2023-03-18T22:04:48.536Z,100.00
2023-03-18T22:06:53.419Z,100.00
2023-03-18T22:08:59.452Z,100.00
2023-03-18T22:11:04.555Z,100.00
2023-03-18T22:13:21.202Z,100.00
2023-03-18T22:15:39.726Z,100.00
2023-03-18T22:17:47.745Z,100.00
2023-03-18T22:19:52.777Z,100.00
2023-03-18T22:21:58.102Z,100.00
2023-03-18T22:24:03.104Z,100.00
2023-03-18T22:26:08.705Z,100.00
2023-03-18T22:28:14.900Z,100.00
2023-03-18T22:30:20.214Z,100.00
2023-03-18T22:32:37.147Z,100.00
2023-03-18T22:34:44.628Z,100.00
2023-03-18T22:36:49.734Z,100.00
2023-03-18T22:38:55.188Z,100.00
2023-03-18T22:41:00.640Z,100.00
2023-03-18T22:43:06.050Z,100.00
2023-03-18T22:45:23.821Z,100.00
2023-03-18T22:47:29.429Z,100.00
2023-03-18T22:49:34.311Z,100.00
2023-03-18T22:51:44.764Z,100.00
2023-03-18T22:53:52.513Z,100.00
2023-03-18T22:55:58.821Z,100.00
2023-03-18T22:58:03.950Z,100.00
2023-03-18T23:00:27.441Z,100.00
2023-03-18T23:02:33.008Z,100.00
2023-03-18T23:04:38.444Z,100.00
2023-03-18T23:06:46.074Z,100.00
2023-03-18T23:08:51.263Z,100.00
2023-03-18T23:10:59.176Z,100.00
2023-03-18T23:13:04.404Z,100.00
2023-03-18T23:15:11.773Z,100.00
2023-03-18T23:17:19.589Z,100.00
2023-03-18T23:19:24.656Z,100.00
2023-03-18T23:21:29.610Z,100.00
2023-03-18T23:23:37.833Z,100.00
2023-03-18T23:25:44.210Z,100.00
2023-03-18T23:27:49.725Z,100.00
2023-03-18T23:29:54.914Z,100.00
2023-03-18T23:31:59.958Z,100.00
2023-03-18T23:34:05.244Z,100.00
2023-03-18T23:36:11.751Z,100.00
2023-03-18T23:38:17.328Z,100.00
2023-03-18T23:40:24.850Z,100.00
2023-03-18T23:42:29.862Z,100.00
2023-03-18T23:44:34.953Z,100.00
2023-03-18T23:46:42.108Z,100.00
2023-03-18T23:48:47.972Z,100.00
2023-03-18T23:50:53.759Z,100.00
2023-03-18T23:52:59.337Z,100.00
2023-03-18T23:55:04.227Z,100.00
2023-03-18T23:57:14.128Z,100.00
2023-03-18T23:59:19.816Z,100.00
